createdAt,value
2018-04-18T00:00:50.378Z,85.21
2018-04-18T00:03:18.288Z,87.04
2018-04-18T00:05:46.015Z,85.97
2018-04-18T00:08:14.565Z,86.86
2018-04-18T00:10:42.295Z,86.45
2018-04-18T00:13:10.368Z,87.12
2018-04-18T00:15:38.610Z,86.60
2018-04-18T00:18:06.324Z,87.60
2018-04-18T00:20:34.068Z,88.00
2018-04-18T00:23:01.731Z,86.63
2018-04-18T00:25:29.610Z,87.86
2018-04-18T00:27:57.707Z,87.75
2018-04-18T00:30:25.818Z,86.96
2018-04-18T00:32:53.594Z,87.72
2018-04-18T00:35:21.539Z,87.16
2018-04-18T00:37:49.204Z,85.86
2018-04-18T00:40:17.190Z,87.06
2018-04-18T00:42:44.901Z,86.45
2018-04-18T00:45:12.574Z,86.55
2018-04-18T00:47:40.709Z,87.29
2018-04-18T00:50:09.244Z,87.53
2018-04-18T00:52:37.084Z,85.89
2018-04-18T00:55:04.768Z,84.65
2018-04-18T00:57:32.435Z,87.56
2018-04-18T01:00:00.025Z,89.05
2018-04-18T01:02:27.725Z,87.94
2018-04-18T01:04:55.411Z,86.40
2018-04-18T01:07:23.106Z,87.61
2018-04-18T01:09:50.956Z,89.16
2018-04-18T01:12:18.594Z,89.34
2018-04-18T01:14:46.339Z,88.51
2018-04-18T01:17:14.079Z,87.06
2018-04-18T01:19:41.702Z,88.59
2018-04-18T01:22:09.735Z,89.89
2018-04-18T01:24:37.615Z,88.10
2018-04-18T01:27:05.235Z,87.43
2018-04-18T01:29:32.871Z,88.07
2018-04-18T01:32:00.534Z,87.71
2018-04-18T01:34:28.155Z,87.12
2018-04-18T01:36:56.552Z,87.41
2018-04-18T01:39:24.252Z,86.55
2018-04-18T01:41:51.771Z,86.54
2018-04-18T01:44:19.399Z,88.23
2018-04-18T01:46:47.060Z,88.29
2018-04-18T01:49:22.074Z,88.42
2018-04-18T01:51:49.754Z,88.54
2018-04-18T01:54:17.435Z,89.06
2018-04-18T01:56:45.022Z,88.84
2018-04-18T01:59:13.030Z,87.89
2018-04-18T02:01:41.250Z,88.17
2018-04-18T02:04:08.890Z,89.66
2018-04-18T02:06:36.842Z,90.76
2018-04-18T02:09:05.255Z,89.23
2018-04-18T02:11:32.770Z,87.87
2018-04-18T02:14:00.537Z,89.82
2018-04-18T02:16:28.149Z,90.17
2018-04-18T02:18:55.988Z,90.19
2018-04-18T02:21:23.667Z,89.69
2018-04-18T02:23:51.461Z,89.13
2018-04-18T02:26:19.150Z,91.50
2018-04-18T02:28:46.875Z,89.09
2018-04-18T02:31:14.516Z,90.18
2018-04-18T02:33:42.185Z,90.99
2018-04-18T02:36:09.814Z,90.82
2018-04-18T02:38:37.425Z,91.02
2018-04-18T02:41:05.110Z,91.01
2018-04-18T02:43:32.742Z,92.00
2018-04-18T02:46:00.258Z,90.63
2018-04-18T02:48:27.853Z,89.78
2018-04-18T02:50:56.487Z,90.67
2018-04-18T02:53:24.813Z,90.39
2018-04-18T02:55:52.557Z,89.29
2018-04-18T02:58:20.279Z,87.99
2018-04-18T03:00:47.848Z,88.06
2018-04-18T03:03:15.444Z,87.09
2018-04-18T03:05:43.150Z,89.14
2018-04-18T03:08:10.748Z,90.72
2018-04-18T03:10:38.710Z,92.51
2018-04-18T03:13:06.328Z,90.39
2018-04-18T03:15:34.012Z,91.44
2018-04-18T03:18:01.940Z,92.99
2018-04-18T03:20:29.567Z,93.87
2018-04-18T03:22:57.462Z,91.96
2018-04-18T03:25:25.287Z,91.12
2018-04-18T03:27:53.397Z,90.60
2018-04-18T03:30:21.181Z,90.55
2018-04-18T03:32:48.784Z,91.44
2018-04-18T03:35:17.484Z,91.78
2018-04-18T03:37:45.336Z,92.83
2018-04-18T03:40:12.855Z,93.47
2018-04-18T03:42:40.476Z,92.27
2018-04-18T03:45:08.095Z,92.90
2018-04-18T03:47:35.671Z,92.37
2018-04-18T03:50:03.279Z,91.15
2018-04-18T03:52:31.175Z,91.53
2018-04-18T03:54:59.024Z,92.04
2018-04-18T03:57:27.093Z,91.99
2018-04-18T03:59:55.150Z,92.29
2018-04-18T04:02:22.769Z,92.74
2018-04-18T04:04:50.439Z,90.61
2018-04-18T04:07:19.701Z,91.33
2018-04-18T04:09:47.329Z,92.61
2018-04-18T04:12:16.060Z,93.12
2018-04-18T04:14:44.358Z,93.38
2018-04-18T04:17:23.699Z,90.81
2018-04-18T04:20:03.135Z,89.95
2018-04-18T04:22:43.201Z,90.95
2018-04-18T04:25:11.023Z,90.18
2018-04-18T04:27:38.754Z,89.21
2018-04-18T04:30:07.353Z,89.33
2018-04-18T04:32:35.083Z,89.05
2018-04-18T04:35:02.865Z,89.26
2018-04-18T04:37:30.664Z,88.08
2018-04-18T04:39:58.325Z,88.62
2018-04-18T04:42:25.970Z,90.89
2018-04-18T04:44:53.967Z,91.85
2018-04-18T04:47:22.111Z,91.74
2018-04-18T04:49:49.830Z,91.28
2018-04-18T04:52:17.803Z,91.43
2018-04-18T04:54:45.470Z,90.53
2018-04-18T04:57:13.005Z,88.49
2018-04-18T04:59:40.671Z,86.63
2018-04-18T05:02:08.416Z,87.18
2018-04-18T05:04:36.151Z,87.95
2018-04-18T05:07:03.837Z,86.81
2018-04-18T05:09:31.551Z,88.54
2018-04-18T05:12:00.181Z,89.75
2018-04-18T05:14:28.553Z,87.01
2018-04-18T05:16:56.287Z,84.49
2018-04-18T05:19:23.846Z,85.08
2018-04-18T05:21:51.611Z,86.46
2018-04-18T05:24:19.268Z,84.29
2018-04-18T05:26:47.114Z,81.66
2018-04-18T05:29:14.790Z,81.90
2018-04-18T05:31:42.482Z,81.90
2018-04-18T05:34:10.052Z,80.76
2018-04-18T05:36:37.970Z,83.23
2018-04-18T05:39:06.341Z,83.67
2018-04-18T05:41:33.927Z,82.31
2018-04-18T05:44:01.702Z,80.48
2018-04-18T05:46:29.322Z,80.82
2018-04-18T05:48:57.055Z,82.42
2018-04-18T05:51:24.866Z,81.59
2018-04-18T05:53:52.581Z,81.06
2018-04-18T05:56:20.278Z,80.63
2018-04-18T05:58:48.006Z,81.17
2018-04-18T06:01:15.847Z,81.40
2018-04-18T06:03:43.653Z,81.00
2018-04-18T06:06:12.067Z,80.42
2018-04-18T06:08:39.748Z,76.91
2018-04-18T06:11:07.397Z,74.47
2018-04-18T06:13:35.060Z,74.89
2018-04-18T06:16:02.900Z,73.89
2018-04-18T06:18:30.458Z,71.39
2018-04-18T06:20:57.962Z,69.66
2018-04-18T06:23:26.602Z,70.04
2018-04-18T06:25:54.172Z,70.25
2018-04-18T06:28:21.792Z,72.39
2018-04-18T06:30:49.501Z,71.72
2018-04-18T06:33:17.222Z,70.22
2018-04-18T06:35:45.043Z,69.78
2018-04-18T06:38:13.390Z,68.24
2018-04-18T06:40:40.991Z,70.31
2018-04-18T06:43:08.656Z,66.48
2018-04-18T06:45:36.188Z,64.46
2018-04-18T06:48:04.446Z,63.95
2018-04-18T06:50:32.072Z,62.69
2018-04-18T06:52:59.786Z,62.32
2018-04-18T06:55:27.761Z,59.98
2018-04-18T06:57:55.447Z,58.15
2018-04-18T07:00:23.127Z,58.63
2018-04-18T07:02:50.813Z,59.35
2018-04-18T07:05:18.349Z,57.13
2018-04-18T07:07:45.932Z,57.69
2018-04-18T07:10:13.622Z,57.54
2018-04-18T07:12:41.414Z,58.43
2018-04-18T07:15:09.132Z,55.64
2018-04-18T07:17:36.659Z,55.79
2018-04-18T07:20:04.230Z,54.47
2018-04-18T07:22:31.871Z,54.19
2018-04-18T07:24:59.443Z,51.92
2018-04-18T07:27:27.032Z,54.08
2018-04-18T07:29:54.951Z,53.29
2018-04-18T07:32:22.638Z,54.19
2018-04-18T07:34:50.347Z,54.09
2018-04-18T07:37:18.038Z,52.40
2018-04-18T07:39:45.979Z,52.87
2018-04-18T07:42:13.599Z,53.29
2018-04-18T07:44:41.120Z,55.29
2018-04-18T07:47:08.999Z,51.41
2018-04-18T07:49:37.602Z,50.11
2018-04-18T07:52:05.143Z,48.74
2018-04-18T07:54:33.398Z,47.11
2018-04-18T07:57:01.088Z,48.67
2018-04-18T07:59:28.654Z,50.00
2018-04-18T08:01:56.644Z,50.89
2018-04-18T08:04:24.268Z,48.32
2018-04-18T08:06:51.825Z,47.47
2018-04-18T08:09:19.363Z,47.77
2018-04-18T08:11:47.503Z,48.73
2018-04-18T08:14:15.047Z,47.27
2018-04-18T08:16:43.097Z,44.95
2018-04-18T08:19:11.108Z,45.96
2018-04-18T08:21:38.727Z,44.78
2018-04-18T08:24:06.424Z,42.45
2018-04-18T08:26:34.183Z,39.05
2018-04-18T08:29:01.858Z,38.85
2018-04-18T08:31:29.564Z,40.59
2018-04-18T08:33:57.420Z,38.30
2018-04-18T08:36:24.957Z,38.44
2018-04-18T08:38:52.570Z,38.01
2018-04-18T08:41:20.278Z,35.28
2018-04-18T08:43:47.985Z,36.42
2018-04-18T08:46:15.755Z,36.93
2018-04-18T08:48:43.334Z,35.36
2018-04-18T08:51:10.912Z,33.30
2018-04-18T08:53:38.549Z,29.39
2018-04-18T08:56:06.083Z,33.10
2018-04-18T08:58:33.704Z,32.16
2018-04-18T09:01:01.399Z,34.31
2018-04-18T09:03:29.064Z,35.73
2018-04-18T09:05:56.742Z,34.26
2018-04-18T09:08:24.591Z,32.78
2018-04-18T09:10:52.139Z,32.77
2018-04-18T09:13:19.741Z,30.39
2018-04-18T09:15:47.829Z,28.92
2018-04-18T09:18:16.038Z,29.25
2018-04-18T09:20:43.583Z,29.61
2018-04-18T09:23:11.370Z,27.47
2018-04-18T09:25:39.108Z,27.30
2018-04-18T09:28:07.071Z,29.91
2018-04-18T09:30:34.665Z,29.08
2018-04-18T09:33:02.241Z,26.48
2018-04-18T09:35:30.003Z,27.03
2018-04-18T09:37:57.707Z,28.21
2018-04-18T09:40:25.377Z,28.01
2018-04-18T09:42:53.925Z,26.30
2018-04-18T09:45:21.803Z,27.06
2018-04-18T09:47:49.331Z,27.13
2018-04-18T09:50:17.334Z,25.89
2018-04-18T09:52:45.270Z,24.94
2018-04-18T09:55:12.858Z,23.30
2018-04-18T09:57:40.502Z,23.70
2018-04-18T10:00:08.026Z,24.85
2018-04-18T10:02:37.593Z,25.46
2018-04-18T10:05:08.633Z,26.30
2018-04-18T10:07:36.327Z,24.38
2018-04-18T10:10:03.973Z,24.03
2018-04-18T10:12:31.565Z,25.01
2018-04-18T10:14:59.412Z,22.89
2018-04-18T10:17:26.953Z,23.01
2018-04-18T10:19:54.719Z,21.37
2018-04-18T10:22:22.593Z,21.08
2018-04-18T10:24:50.138Z,22.43
2018-04-18T10:27:17.734Z,22.82
2018-04-18T10:29:45.260Z,24.14
2018-04-18T10:32:12.883Z,24.89
2018-04-18T10:34:40.533Z,25.73
2018-04-18T10:37:08.306Z,25.41
2018-04-18T10:39:36.174Z,25.17
2018-04-18T10:42:03.919Z,25.09
2018-04-18T10:44:31.850Z,24.26
2018-04-18T10:46:59.542Z,24.16
2018-04-18T10:49:27.577Z,23.07
2018-04-18T10:51:55.298Z,22.78
2018-04-18T10:54:22.913Z,21.35
2018-04-18T10:56:50.706Z,22.15
2018-04-18T10:59:18.296Z,21.31
2018-04-18T11:01:46.012Z,18.76
2018-04-18T11:04:13.628Z,20.94
2018-04-18T11:06:41.270Z,21.53
2018-04-18T11:09:09.045Z,19.67
2018-04-18T11:11:36.580Z,22.48
2018-04-18T11:14:04.125Z,22.23
2018-04-18T11:16:31.713Z,21.96
2018-04-18T11:18:59.602Z,21.45
2018-04-18T11:21:27.194Z,20.14
2018-04-18T11:23:54.804Z,21.47
2018-04-18T11:26:22.334Z,21.37
2018-04-18T11:28:49.876Z,22.50
2018-04-18T11:31:17.640Z,21.98
2018-04-18T11:33:45.298Z,21.05
2018-04-18T11:36:13.280Z,21.72
2018-04-18T11:38:40.994Z,23.49
2018-04-18T11:41:08.668Z,20.70
2018-04-18T11:43:36.326Z,22.20
2018-04-18T11:46:03.960Z,21.82
2018-04-18T11:48:31.495Z,19.40
2018-04-18T11:50:59.265Z,21.40
2018-04-18T11:53:27.054Z,23.51
2018-04-18T11:55:55.543Z,22.48
2018-04-18T11:58:23.111Z,20.90
2018-04-18T12:00:50.931Z,18.53
2018-04-18T12:03:18.598Z,18.17
2018-04-18T12:05:46.283Z,18.44
2018-04-18T12:08:14.037Z,20.40
2018-04-18T12:10:41.820Z,21.95
2018-04-18T12:13:09.394Z,22.67
2018-04-18T12:15:36.934Z,20.60
2018-04-18T12:18:04.716Z,21.34
2018-04-18T12:20:32.279Z,21.38
2018-04-18T12:22:59.900Z,20.22
2018-04-18T12:25:27.809Z,20.17
2018-04-18T12:27:55.451Z,19.88
2018-04-18T12:30:23.027Z,19.08
2018-04-18T12:32:51.471Z,20.33
2018-04-18T12:35:19.085Z,18.75
2018-04-18T12:37:46.880Z,19.93
2018-04-18T12:40:15.218Z,20.76
2018-04-18T12:42:42.945Z,20.16
2018-04-18T12:45:10.576Z,20.93
2018-04-18T12:47:38.333Z,18.75
2018-04-18T12:50:06.839Z,18.25
2018-04-18T12:52:34.457Z,17.97
2018-04-18T12:55:02.119Z,18.44
2018-04-18T12:57:29.855Z,19.45
2018-04-18T12:59:57.411Z,18.39
2018-04-18T13:02:25.131Z,17.74
2018-04-18T13:04:52.758Z,17.99
2018-04-18T13:07:20.292Z,16.38
2018-04-18T13:09:48.159Z,18.74
2018-04-18T13:12:15.772Z,18.07
2018-04-18T13:14:43.309Z,18.09
2018-04-18T13:17:10.898Z,18.40
2018-04-18T13:19:38.638Z,20.29
2018-04-18T13:22:06.310Z,19.54
2018-04-18T13:24:34.923Z,20.24
2018-04-18T13:27:02.499Z,19.02
2018-04-18T13:29:30.206Z,19.39
2018-04-18T13:31:57.796Z,18.51
2018-04-18T13:34:25.374Z,17.58
2018-04-18T13:36:53.022Z,18.03
2018-04-18T13:39:20.604Z,19.68
2018-04-18T13:41:48.181Z,18.20
2018-04-18T13:44:15.866Z,18.24
2018-04-18T13:46:43.475Z,18.86
2018-04-18T13:49:11.018Z,20.11
2018-04-18T13:51:38.543Z,19.96
2018-04-18T13:54:06.152Z,20.84
2018-04-18T13:56:34.103Z,19.10
2018-04-18T13:59:02.096Z,20.60
2018-04-18T14:01:29.857Z,23.08
2018-04-18T14:03:57.587Z,22.33
2018-04-18T14:06:25.297Z,22.59
2018-04-18T14:08:52.826Z,21.67
2018-04-18T14:11:20.698Z,21.85
2018-04-18T14:13:48.242Z,22.78
2018-04-18T14:16:15.835Z,23.21
2018-04-18T14:18:43.618Z,22.74
2018-04-18T14:21:11.328Z,23.41
2018-04-18T14:23:39.078Z,22.29
2018-04-18T14:26:06.610Z,23.26
2018-04-18T14:28:34.215Z,25.32
2018-04-18T14:31:02.461Z,24.26
2018-04-18T14:33:30.134Z,24.33
2018-04-18T14:35:58.530Z,22.76
2018-04-18T14:38:26.228Z,21.66
2018-04-18T14:40:53.816Z,21.00
2018-04-18T14:43:21.433Z,22.20
2018-04-18T14:45:49.180Z,22.04
2018-04-18T14:48:16.941Z,23.08
2018-04-18T14:50:44.474Z,23.81
2018-04-18T14:53:12.275Z,23.09
2018-04-18T14:55:40.685Z,23.89
2018-04-18T14:58:08.590Z,25.38
2018-04-18T15:00:37.025Z,21.18
2018-04-18T15:03:04.654Z,20.74
2018-04-18T15:05:32.311Z,21.03
2018-04-18T15:07:59.873Z,22.23
2018-04-18T15:10:27.628Z,20.89
2018-04-18T15:12:55.274Z,21.16
2018-04-18T15:15:22.818Z,19.12
2018-04-18T15:17:50.357Z,19.33
2018-04-18T15:20:18.029Z,20.07
2018-04-18T15:22:45.801Z,21.15
2018-04-18T15:25:13.395Z,20.85
2018-04-18T15:27:40.989Z,22.94
2018-04-18T15:30:08.650Z,22.08
2018-04-18T15:32:36.312Z,22.59
2018-04-18T15:35:03.844Z,22.67
2018-04-18T15:37:31.534Z,24.43
2018-04-18T15:39:59.121Z,23.21
2018-04-18T15:42:26.865Z,24.79
2018-04-18T15:44:55.386Z,23.88
2018-04-18T15:47:23.009Z,25.10
2018-04-18T15:49:50.686Z,26.08
2018-04-18T15:52:18.389Z,26.29
2018-04-18T15:54:46.140Z,25.26
2018-04-18T15:57:13.840Z,26.10
2018-04-18T15:59:42.438Z,26.20
2018-04-18T16:02:10.256Z,26.58
2018-04-18T16:04:37.876Z,25.51
2018-04-18T16:07:05.861Z,24.48
2018-04-18T16:09:33.437Z,25.83
2018-04-18T16:12:01.062Z,25.68
2018-04-18T16:14:29.316Z,27.31
2018-04-18T16:16:56.861Z,27.26
2018-04-18T16:19:24.522Z,27.57
2018-04-18T16:21:52.056Z,26.99
2018-04-18T16:24:19.856Z,26.45
2018-04-18T16:26:47.560Z,26.34
2018-04-18T16:29:27.028Z,27.42
2018-04-18T16:31:55.076Z,27.79
2018-04-18T16:34:22.696Z,28.55
2018-04-18T16:36:50.302Z,28.87
2018-04-18T16:39:17.848Z,28.00
2018-04-18T16:41:45.571Z,29.09
2018-04-18T16:44:13.100Z,28.05
2018-04-18T16:46:40.904Z,28.01
2018-04-18T16:49:08.712Z,27.46
2018-04-18T16:51:36.260Z,27.08
2018-04-18T16:54:04.006Z,26.80
2018-04-18T16:56:31.760Z,27.64
2018-04-18T16:58:59.387Z,28.35
2018-04-18T17:01:27.262Z,29.42
2018-04-18T17:03:54.825Z,28.94
2018-04-18T17:06:22.392Z,30.41
2018-04-18T17:08:49.926Z,28.57
2018-04-18T17:11:17.731Z,29.26
2018-04-18T17:13:45.617Z,29.34
2018-04-18T17:16:13.156Z,28.52
2018-04-18T17:18:40.742Z,29.82
2018-04-18T17:21:08.438Z,29.80
2018-04-18T17:23:36.021Z,29.32
2018-04-18T17:26:03.545Z,29.89
2018-04-18T17:28:31.092Z,30.29
2018-04-18T17:30:58.752Z,31.16
2018-04-18T17:33:26.425Z,30.87
2018-04-18T17:35:54.155Z,30.46
2018-04-18T17:38:21.677Z,30.84
2018-04-18T17:40:49.201Z,31.29
2018-04-18T17:43:16.812Z,31.78
2018-04-18T17:45:44.622Z,31.71
2018-04-18T17:48:12.148Z,32.28
2018-04-18T17:50:39.903Z,32.73
2018-04-18T17:53:07.452Z,32.95
2018-04-18T17:55:35.031Z,33.54
2018-04-18T17:58:02.945Z,34.62
2018-04-18T18:00:30.776Z,34.15
2018-04-18T18:02:58.340Z,34.52
2018-04-18T18:05:26.041Z,35.26
2018-04-18T18:07:54.519Z,36.02
2018-04-18T18:10:22.062Z,36.98
2018-04-18T18:12:49.694Z,37.91
2018-04-18T18:15:17.230Z,38.05
2018-04-18T18:17:45.442Z,41.21
2018-04-18T18:20:13.037Z,40.98
2018-04-18T18:22:40.761Z,39.61
2018-04-18T18:25:08.626Z,40.40
2018-04-18T18:27:36.327Z,40.93
2018-04-18T18:30:03.913Z,42.49
2018-04-18T18:32:31.637Z,44.79
2018-04-18T18:34:59.321Z,46.64
2018-04-18T18:37:27.076Z,47.73
2018-04-18T18:39:54.686Z,48.18
2018-04-18T18:42:22.300Z,50.20
2018-04-18T18:44:50.125Z,53.35
2018-04-18T18:47:17.716Z,56.04
2018-04-18T18:49:45.341Z,55.24
2018-04-18T18:52:13.106Z,55.26
2018-04-18T18:54:41.102Z,55.67
2018-04-18T18:57:08.896Z,57.82
2018-04-18T18:59:36.517Z,58.52
2018-04-18T19:02:04.392Z,57.81
2018-04-18T19:04:32.196Z,60.04
2018-04-18T19:07:00.224Z,59.79
2018-04-18T19:09:27.787Z,59.38
2018-04-18T19:11:55.474Z,59.98
2018-04-18T19:14:23.018Z,59.74
2018-04-18T19:16:50.691Z,63.63
2018-04-18T19:19:18.241Z,63.63
2018-04-18T19:21:45.850Z,63.01
2018-04-18T19:24:13.491Z,62.94
2018-04-18T19:26:41.115Z,63.21
2018-04-18T19:29:08.776Z,63.85
2018-04-18T19:31:36.339Z,63.94
2018-04-18T19:34:04.021Z,64.19
2018-04-18T19:36:31.588Z,64.24
2018-04-18T19:38:59.807Z,66.08
2018-04-18T19:41:27.622Z,66.84
2018-04-18T19:43:55.694Z,69.54
2018-04-18T19:46:23.813Z,67.29
2018-04-18T19:48:51.596Z,66.24
2018-04-18T19:51:19.398Z,66.30
2018-04-18T19:53:47.356Z,65.87
2018-04-18T19:56:14.988Z,67.54
2018-04-18T19:58:42.576Z,69.15
2018-04-18T20:01:10.441Z,69.37
2018-04-18T20:03:38.074Z,68.26
2018-04-18T20:06:05.788Z,69.14
2018-04-18T20:08:33.337Z,69.64
2018-04-18T20:11:01.120Z,69.26
2018-04-18T20:13:28.707Z,69.97
2018-04-18T20:15:56.303Z,72.31
2018-04-18T20:18:24.138Z,71.96
2018-04-18T20:20:51.678Z,71.11
2018-04-18T20:23:19.302Z,70.25
2018-04-18T20:25:46.897Z,71.43
2018-04-18T20:28:14.489Z,70.19
2018-04-18T20:30:42.132Z,70.40
2018-04-18T20:33:09.697Z,70.94
2018-04-18T20:35:37.263Z,70.07
2018-04-18T20:38:04.948Z,70.28
2018-04-18T20:40:33.842Z,69.68
2018-04-18T20:43:01.484Z,71.90
2018-04-18T20:45:29.201Z,71.36
2018-04-18T20:47:56.781Z,70.57
2018-04-18T20:50:25.111Z,74.30
2018-04-18T20:52:52.718Z,73.56
2018-04-18T20:55:20.278Z,73.07
2018-04-18T20:57:48.003Z,74.00
2018-04-18T21:00:15.726Z,75.08
2018-04-18T21:02:43.373Z,74.97
2018-04-18T21:05:11.059Z,76.13
2018-04-18T21:07:38.642Z,76.18
2018-04-18T21:10:06.405Z,76.13
2018-04-18T21:12:33.960Z,77.28
2018-04-18T21:15:01.724Z,76.05
2018-04-18T21:17:29.276Z,75.52
2018-04-18T21:19:56.842Z,76.42
2018-04-18T21:22:24.444Z,77.59
2018-04-18T21:24:52.966Z,76.84
2018-04-18T21:27:20.504Z,76.26
2018-04-18T21:29:48.041Z,77.97
2018-04-18T21:32:15.703Z,77.65
2018-04-18T21:34:43.346Z,78.71
2018-04-18T21:37:11.048Z,78.42
2018-04-18T21:39:38.704Z,77.47
2018-04-18T21:42:06.228Z,79.25
2018-04-18T21:44:34.162Z,78.59
2018-04-18T21:47:01.697Z,78.24
2018-04-18T21:49:29.414Z,79.56
2018-04-18T21:52:10.627Z,79.16
2018-04-18T21:54:38.611Z,78.58
2018-04-18T21:57:06.181Z,78.09
2018-04-18T21:59:34.081Z,78.25
2018-04-18T22:02:01.687Z,78.46
2018-04-18T22:04:29.230Z,77.62
2018-04-18T22:06:57.218Z,78.20
2018-04-18T22:09:24.774Z,78.62
2018-04-18T22:12:27.593Z,79.09
2018-04-18T22:14:55.455Z,79.33
2018-04-18T22:17:23.136Z,79.20
2018-04-18T22:19:50.897Z,78.36
2018-04-18T22:22:18.448Z,79.09
2018-04-18T22:24:46.182Z,79.94
2018-04-18T22:27:14.496Z,80.81
2018-04-18T22:29:42.773Z,81.74
2018-04-18T22:32:10.406Z,81.76
2018-04-18T22:34:39.391Z,81.98
2018-04-18T22:37:07.431Z,81.80
2018-04-18T22:39:34.970Z,82.07
2018-04-18T22:42:02.641Z,82.66
2018-04-18T22:44:30.197Z,81.78
2018-04-18T22:46:57.716Z,82.59
2018-04-18T22:49:25.695Z,82.16
2018-04-18T22:51:53.352Z,82.85
2018-04-18T22:54:21.068Z,82.24
2018-04-18T22:56:48.722Z,82.06
2018-04-18T22:59:16.378Z,82.82
2018-04-18T23:01:44.066Z,81.20
2018-04-18T23:04:12.528Z,82.76
2018-04-18T23:06:40.308Z,81.88
2018-04-18T23:09:08.727Z,82.95
2018-04-18T23:11:36.247Z,82.94
2018-04-18T23:14:04.093Z,83.03
2018-04-18T23:16:32.313Z,83.16
2018-04-18T23:19:00.878Z,83.35
2018-04-18T23:21:28.483Z,82.14
2018-04-18T23:23:56.138Z,83.77
2018-04-18T23:26:23.763Z,83.33
2018-04-18T23:28:51.346Z,83.67
2018-04-18T23:31:19.790Z,83.66
2018-04-18T23:33:47.446Z,84.09
2018-04-18T23:36:15.157Z,84.60
2018-04-18T23:38:42.833Z,83.95
2018-04-18T23:41:11.114Z,84.07
2018-04-18T23:43:38.831Z,83.97
2018-04-18T23:46:07.606Z,84.54
2018-04-18T23:48:35.477Z,83.69
2018-04-18T23:51:03.208Z,83.88
2018-04-18T23:53:30.903Z,84.24
2018-04-18T23:55:58.661Z,84.72
2018-04-18T23:58:26.778Z,84.12
